createdAt,value
2022-10-19T13:18:00.882Z,22.36
2022-10-19T13:18:31.904Z,22.36
2022-10-19T13:19:02.045Z,22.37
2022-10-19T13:19:32.026Z,22.40
2022-10-19T13:20:02.202Z,22.40
2022-10-19T13:20:32.511Z,22.42
2022-10-19T13:21:03.607Z,22.42
2022-10-19T13:21:32.540Z,22.43
2022-10-19T13:22:02.335Z,22.45
2022-10-19T13:22:32.912Z,22.46
2022-10-19T13:23:02.453Z,22.47
2022-10-19T13:23:32.800Z,22.46
2022-10-19T13:24:02.574Z,22.47
2022-10-19T13:24:32.619Z,22.49
2022-10-19T13:25:05.867Z,22.49
2022-10-19T13:25:32.899Z,22.51
2022-10-19T13:26:03.189Z,22.54
2022-10-19T13:26:32.874Z,22.54
2022-10-19T13:27:03.269Z,22.57
2022-10-19T13:27:33.171Z,22.55
2022-10-19T13:28:03.308Z,22.58
2022-10-19T13:28:33.151Z,22.57
2022-10-19T13:29:03.508Z,22.58
2022-10-19T13:30:03.626Z,22.61
2022-10-19T13:30:33.461Z,22.61
2022-10-19T13:32:03.672Z,22.64
2022-10-19T13:34:03.866Z,22.70
2022-10-19T13:34:33.905Z,22.73
2022-10-19T13:35:34.124Z,22.75
2022-10-19T13:36:34.035Z,22.76
2022-10-19T13:37:34.904Z,22.79
2022-10-19T13:38:04.505Z,22.80
2022-10-19T13:39:04.584Z,22.80
2022-10-19T13:39:34.666Z,22.80
2022-10-19T13:40:04.606Z,22.82
2022-10-19T13:40:34.708Z,22.80
2022-10-19T13:41:04.687Z,22.80
2022-10-19T13:41:35.075Z,22.79
2022-10-19T13:42:05.070Z,22.82
2022-10-19T13:42:35.406Z,22.80
2022-10-19T13:43:04.991Z,22.83
2022-10-19T13:43:35.037Z,22.82
2022-10-19T13:44:05.428Z,22.82
2022-10-19T13:44:35.227Z,22.79
2022-10-19T13:45:35.548Z,22.86
2022-10-19T13:46:35.542Z,22.86
2022-10-19T13:47:05.465Z,22.85
2022-10-19T13:47:35.812Z,22.82
2022-10-19T13:48:35.551Z,22.86
2022-10-19T13:49:05.945Z,22.88
2022-10-19T13:50:06.206Z,22.86
2022-10-19T13:50:36.186Z,22.85
2022-10-19T13:51:06.263Z,22.88
